Kasson, Minnesota
Current Conditions -  °F | °C
As of 8:34 PM on Wednesday 22 Oct 2014 (Local Time) from KTOB Reporting Station
Clear Clear  
Wind Chill: 55°   Ceiling: Unl
Heat Index: 55°   Visibility: 10mi
Dew Point: 39°   Wind: 18mph
Humidity: 54%   Direction: 160°SSE
Pressure: 30.09"   Gusts: 26mph
Location:  44.03°N, 92.75°W
Report Text: KTOB 230134Z AUTO 16016G23KT 10SM CLR 13/04 A3009 RMK AO2
Loading
Personal Weather Stations






























Interactive Weather Map
Tropical Storm Tracking
New forecast layout! Learn more

10-Day Weather Forecast

Advertisements
Track Severe Weather on mobile